Time;durP1;ratioP1;P1;durP2;ratioP2;P2;SDS_P1;SDS_P2;PMS_P1;PMS_P2;Temp;Humidity;BMP_temperature;BMP_pressure;BME280_temperature;BME280_humidity;BME280_pressure;Samples;Min_cycle;Max_cycle;Signal;HPM_P1;HPM_P2
2024/02/07 00:01:40;;;;;;;3.37;2.20;;;6.20;99.60;;;;;;5045939;28;20219;-74
2024/02/07 00:04:08;;;;;;;2.67;2.10;;;6.20;99.60;;;;;;5046634;28;20202;-73
2024/02/07 00:06:35;;;;;;;3.50;2.30;;;6.10;99.60;;;;;;5049327;28;20283;-74
2024/02/07 00:09:01;;;;;;;3.20;1.90;;;6.30;99.70;;;;;;5049370;28;20295;-73
2024/02/07 00:11:28;;;;;;;3.15;2.42;;;6.20;99.50;;;;;;5044154;28;20198;-73
2024/02/07 00:13:55;;;;;;;3.53;2.55;;;6.30;99.60;;;;;;5044832;28;20188;-73
2024/02/07 00:16:22;;;;;;;3.65;2.00;;;6.40;99.30;;;;;;5049048;28;20313;-74
2024/02/07 00:18:49;;;;;;;2.90;2.10;;;6.30;99.20;;;;;;5049269;28;20215;-74
2024/02/07 00:21:17;;;;;;;2.85;2.20;;;6.30;99.50;;;;;;5044133;28;20196;-73
2024/02/07 00:23:43;;;;;;;2.65;2.30;;;6.20;99.60;;;;;;5047955;28;20199;-73
2024/02/07 00:26:10;;;;;;;2.50;2.30;;;6.20;99.60;;;;;;5047310;28;20223;-74
2024/02/07 00:28:37;;;;;;;7.05;2.50;;;6.10;99.50;;;;;;5048472;28;20202;-74
2024/02/07 00:31:05;;;;;;;2.55;2.20;;;6.10;99.60;;;;;;5048788;28;20199;-74
2024/02/07 00:33:31;;;;;;;3.45;2.40;;;6.20;99.70;;;;;;5047062;28;20207;-74
2024/02/07 00:35:58;;;;;;;2.40;2.20;;;6.10;99.70;;;;;;5048219;28;20234;-74
2024/02/07 00:38:26;;;;;;;4.07;2.50;;;6.10;99.70;;;;;;5048381;28;20199;-74
2024/02/07 00:40:53;;;;;;;2.67;2.42;;;6.10;99.60;;;;;;5045741;28;20199;-74
2024/02/07 00:43:21;;;;;;;4.32;2.17;;;6.10;99.60;;;;;;5041255;28;20224;-74
2024/02/07 00:45:48;;;;;;;7.20;2.75;;;6.20;99.50;;;;;;5048689;28;20287;-74
2024/02/07 00:48:15;;;;;;;8.80;2.80;;;6.10;99.70;;;;;;5046345;28;20849;-74
2024/02/07 00:50:42;;;;;;;3.40;2.95;;;6.10;99.70;;;;;;5047559;28;20215;-73
2024/02/07 00:53:09;;;;;;;2.13;1.92;;;6.10;99.70;;;;;;5036356;28;20212;-74
2024/02/07 00:55:37;;;;;;;5.70;2.40;;;5.90;99.80;;;;;;5041447;28;20200;-74
2024/02/07 00:58:06;;;;;;;3.08;2.05;;;6.00;99.90;;;;;;5048391;28;20228;-74
2024/02/07 01:00:33;;;;;;;3.30;3.00;;;6.00;99.90;;;;;;5047920;28;20672;-73
2024/02/07 01:03:00;;;;;;;2.72;2.00;;;5.90;99.90;;;;;;5044298;28;20199;-74
2024/02/07 01:05:27;;;;;;;3.25;2.83;;;5.90;99.90;;;;;;5047359;28;20202;-74
2024/02/07 01:07:54;;;;;;;3.80;2.33;;;6.10;99.90;;;;;;5044661;28;20206;-73
2024/02/07 01:10:20;;;;;;;2.50;2.22;;;6.10;99.80;;;;;;5043406;28;20231;-73
2024/02/07 01:12:48;;;;;;;2.83;2.38;;;6.00;99.90;;;;;;5037826;28;20202;-73
2024/02/07 01:15:15;;;;;;;3.78;2.78;;;6.00;99.90;;;;;;5045465;28;20250;-74
2024/02/07 01:17:42;;;;;;;3.63;2.83;;;6.00;99.90;;;;;;5048254;28;20612;-74
2024/02/07 01:20:10;;;;;;;2.55;2.05;;;6.10;99.90;;;;;;5047732;28;20568;-74
2024/02/07 01:22:37;;;;;;;3.35;2.47;;;6.00;99.90;;;;;;5047446;28;20200;-74
2024/02/07 01:25:05;;;;;;;3.42;2.67;;;6.10;99.90;;;;;;5047985;28;20199;-74
2024/02/07 01:27:31;;;;;;;2.45;2.25;;;6.00;99.90;;;;;;5046873;28;20734;-74
2024/02/07 01:30:01;;;;;;;3.30;2.72;;;6.10;99.90;;;;;;5047018;28;20298;-73
2024/02/07 01:32:28;;;;;;;3.20;2.10;;;6.10;99.90;;;;;;5047833;28;20588;-73
2024/02/07 01:34:54;;;;;;;4.75;2.50;;;6.20;99.90;;;;;;5047569;28;20222;-74
2024/02/07 01:37:21;;;;;;;3.72;2.10;;;6.20;99.90;;;;;;5048289;28;20238;-73
2024/02/07 01:39:48;;;;;;;5.40;2.65;;;6.20;99.90;;;;;;5047965;28;20206;-74
2024/02/07 01:42:15;;;;;;;5.05;2.55;;;6.00;99.90;;;;;;5044196;28;20200;-73
2024/02/07 01:44:41;;;;;;;2.20;1.90;;;6.10;99.90;;;;;;5037531;28;20547;-74
2024/02/07 01:47:13;;;;;;;3.40;2.70;;;6.20;99.90;;;;;;5046749;28;20303;-74
2024/02/07 01:49:41;;;;;;;2.85;2.50;;;6.20;99.90;;;;;;5043627;28;20206;-74
2024/02/07 01:52:10;;;;;;;4.85;2.72;;;6.30;99.90;;;;;;5047371;28;20196;-73
2024/02/07 01:54:40;;;;;;;4.03;3.08;;;6.20;99.90;;;;;;5046817;28;20195;-74
2024/02/07 01:57:07;;;;;;;3.67;3.03;;;6.20;99.90;;;;;;5043652;28;20310;-74
2024/02/07 01:59:36;;;;;;;3.47;2.92;;;6.10;99.90;;;;;;5047306;28;20218;-73
2024/02/07 02:02:03;;;;;;;5.00;2.72;;;6.20;99.90;;;;;;5046622;28;20553;-74
2024/02/07 02:04:33;;;;;;;2.42;2.10;;;6.20;99.90;;;;;;5045845;28;20646;-73
2024/02/07 02:07:00;;;;;;;3.90;2.92;;;6.10;99.90;;;;;;5047715;28;20203;-73
2024/02/07 02:09:27;;;;;;;3.35;2.30;;;6.10;99.90;;;;;;5047027;28;20287;-73
2024/02/07 02:11:55;;;;;;;3.72;2.70;;;6.20;99.90;;;;;;5044495;28;20209;-73
2024/02/07 02:14:24;;;;;;;6.10;2.70;;;6.10;99.90;;;;;;5046760;28;20222;-73
2024/02/07 02:16:51;;;;;;;6.18;2.45;;;6.20;99.90;;;;;;5045501;28;20238;-73
2024/02/07 02:19:19;;;;;;;3.25;2.25;;;6.20;99.90;;;;;;5045303;28;20197;-73
2024/02/07 02:22:11;;;;;;;3.42;2.85;;;6.20;99.90;;;;;;5046107;28;20195;-74
2024/02/07 02:24:56;;;;;;;2.25;2.03;;;6.10;99.90;;;;;;5040428;28;20656;-74
2024/02/07 02:27:39;;;;;;;2.88;2.63;;;6.10;99.90;;;;;;5039720;28;20216;-73
2024/02/07 02:30:12;;;;;;;5.00;2.60;;;6.20;99.90;;;;;;5046966;28;20200;-73
2024/02/07 02:32:41;;;;;;;2.92;2.50;;;6.20;99.90;;;;;;5041287;28;20197;-73
2024/02/07 02:35:09;;;;;;;2.45;2.25;;;6.20;99.90;;;;;;5045585;28;20207;-73
2024/02/07 02:37:37;;;;;;;4.65;3.10;;;6.10;99.90;;;;;;5046275;28;20226;-73
2024/02/07 02:40:06;;;;;;;3.15;2.83;;;6.20;99.90;;;;;;5042342;28;20200;-73
2024/02/07 02:42:34;;;;;;;3.10;2.55;;;6.20;99.90;;;;;;5043891;28;20200;-74
2024/02/07 02:45:01;;;;;;;3.20;2.88;;;6.20;99.90;;;;;;5042806;28;20200;-73
2024/02/07 02:47:29;;;;;;;4.28;2.78;;;6.20;99.90;;;;;;5043810;28;20188;-73
2024/02/07 02:49:57;;;;;;;4.05;2.80;;;6.20;99.90;;;;;;5044756;28;20199;-73
2024/02/07 02:52:24;;;;;;;3.15;2.10;;;6.20;99.90;;;;;;5047800;28;20200;-73
2024/02/07 02:54:51;;;;;;;3.50;2.60;;;6.20;99.90;;;;;;5047834;28;20315;-73
2024/02/07 02:57:18;;;;;;;4.00;2.63;;;6.10;99.90;;;;;;5051167;28;20307;-74
2024/02/07 02:59:48;;;;;;;3.17;2.50;;;6.20;99.90;;;;;;5048349;28;20208;-74
2024/02/07 03:02:19;;;;;;;4.85;2.65;;;6.30;99.90;;;;;;5049214;28;20212;-73
2024/02/07 03:04:49;;;;;;;3.28;2.35;;;6.50;99.90;;;;;;5046920;28;20207;-73
2024/02/07 03:07:43;;;;;;;2.50;2.30;;;6.40;99.90;;;;;;5049963;28;20212;-73
2024/02/07 03:10:11;;;;;;;5.38;2.70;;;6.40;99.90;;;;;;5048865;28;20203;-74
2024/02/07 03:12:38;;;;;;;3.90;2.55;;;6.40;99.90;;;;;;5046967;28;20219;-73
2024/02/07 03:15:07;;;;;;;3.90;2.45;;;6.40;99.90;;;;;;5042038;28;20215;-73
2024/02/07 03:17:36;;;;;;;3.53;2.00;;;6.40;99.90;;;;;;5048569;28;20275;-74
2024/02/07 03:20:07;;;;;;;5.20;3.25;;;6.40;99.90;;;;;;5047991;28;20228;-73
2024/02/07 03:22:36;;;;;;;4.03;2.40;;;6.60;99.90;;;;;;5049718;28;20204;-73
2024/02/07 03:25:04;;;;;;;5.53;2.75;;;6.60;99.90;;;;;;5050208;28;20208;-73
2024/02/07 03:27:32;;;;;;;2.85;2.50;;;6.50;99.90;;;;;;5045000;28;20294;-74
2024/02/07 03:29:59;;;;;;;8.02;2.08;;;6.50;99.90;;;;;;5050138;28;20196;-74
2024/02/07 03:32:27;;;;;;;3.55;3.05;;;6.60;99.90;;;;;;5048444;28;20202;-74
2024/02/07 03:34:53;;;;;;;2.72;2.33;;;6.60;99.90;;;;;;5049949;28;20650;-74
2024/02/07 03:37:23;;;;;;;2.88;2.40;;;6.70;99.90;;;;;;5050348;28;20224;-74
2024/02/07 03:39:50;;;;;;;4.45;2.70;;;6.60;99.90;;;;;;5049224;28;20200;-73
2024/02/07 03:42:21;;;;;;;3.90;2.53;;;6.70;99.90;;;;;;5043455;28;20201;-73
2024/02/07 03:44:56;;;;;;;5.13;3.33;;;6.80;99.90;;;;;;5049218;28;20291;-74
2024/02/07 03:47:25;;;;;;;4.53;2.60;;;6.80;99.90;;;;;;5049962;28;20619;-73
2024/02/07 03:49:53;;;;;;;3.40;2.47;;;6.70;99.90;;;;;;5044390;28;20200;-74
2024/02/07 03:52:20;;;;;;;3.05;2.00;;;6.70;99.90;;;;;;5048865;28;20221;-74
2024/02/07 03:54:50;;;;;;;2.50;2.25;;;6.80;99.90;;;;;;5043786;28;20201;-74
2024/02/07 03:57:19;;;;;;;3.33;3.03;;;6.80;99.90;;;;;;5045244;28;20212;-74
2024/02/07 03:59:47;;;;;;;2.75;2.00;;;6.90;99.90;;;;;;5049421;28;20977;-74
2024/02/07 04:02:21;;;;;;;3.45;3.05;;;6.90;99.90;;;;;;5049259;28;20345;-74
2024/02/07 04:04:50;;;;;;;4.77;2.40;;;6.90;99.90;;;;;;5048300;28;20254;-74
2024/02/07 04:07:19;;;;;;;4.63;2.72;;;6.90;99.90;;;;;;5049219;28;20634;-74
2024/02/07 04:09:47;;;;;;;2.85;2.65;;;7.00;99.90;;;;;;5045316;28;20204;-74
2024/02/07 05:17:16;;;;;;;4.00;2.67;;;7.20;99.90;;;;;;5042278;28;20689;-74
2024/02/07 05:19:42;;;;;;;4.18;2.30;;;7.20;99.90;;;;;;5047534;28;20661;-74
2024/02/07 05:22:10;;;;;;;6.40;2.37;;;7.30;99.90;;;;;;5047998;28;20635;-74
2024/02/07 05:24:38;;;;;;;7.60;2.13;;;7.30;99.90;;;;;;5048115;28;20704;-74
2024/02/07 05:27:07;;;;;;;3.40;2.85;;;7.30;99.90;;;;;;5048120;28;20680;-74
2024/02/07 05:29:34;;;;;;;2.78;2.55;;;7.30;99.90;;;;;;5047949;28;20680;-74
2024/02/07 05:32:01;;;;;;;4.20;2.30;;;7.30;99.90;;;;;;5047487;28;20222;-74
2024/02/07 05:34:29;;;;;;;6.60;2.73;;;7.30;99.90;;;;;;5046360;28;20622;-74
2024/02/07 05:36:55;;;;;;;4.03;2.60;;;7.30;99.90;;;;;;5046698;28;20630;-74
2024/02/07 05:39:23;;;;;;;5.87;2.43;;;7.30;99.90;;;;;;5047962;28;20230;-74
2024/02/07 05:41:50;;;;;;;2.50;2.30;;;7.30;99.90;;;;;;5048324;28;20634;-73
2024/02/07 05:44:17;;;;;;;2.37;2.10;;;7.30;99.90;;;;;;5043172;28;20728;-74
2024/02/07 05:46:43;;;;;;;3.47;2.83;;;7.30;99.90;;;;;;5047540;28;20629;-74
2024/02/07 05:49:13;;;;;;;3.00;2.23;;;7.40;99.90;;;;;;5047167;28;20200;-74
2024/02/07 05:51:42;;;;;;;4.40;2.07;;;7.40;99.90;;;;;;5045868;28;20622;-74
2024/02/07 05:54:09;;;;;;;2.83;2.20;;;7.40;99.90;;;;;;5046040;28;20637;-74
2024/02/07 05:56:36;;;;;;;5.70;2.20;;;7.40;99.90;;;;;;5044358;28;20681;-74
2024/02/07 05:59:02;;;;;;;5.10;2.50;;;7.30;99.90;;;;;;5047438;28;21115;-74
2024/02/07 06:01:29;;;;;;;3.37;2.37;;;7.30;99.90;;;;;;5047614;28;20625;-74
2024/02/07 06:03:56;;;;;;;2.70;2.07;;;7.40;99.90;;;;;;5046470;28;20621;-73
2024/02/07 06:06:24;;;;;;;2.80;2.10;;;7.40;99.90;;;;;;5042271;28;20626;-74
2024/02/07 06:08:52;;;;;;;4.23;3.00;;;7.40;99.90;;;;;;5046762;28;20622;-75
2024/02/07 06:11:21;;;;;;;2.93;2.70;;;7.40;99.90;;;;;;5047462;28;20630;-75
2024/02/07 06:13:48;;;;;;;3.70;2.20;;;7.40;99.90;;;;;;5045704;28;20630;-75
2024/02/07 06:16:15;;;;;;;2.73;2.40;;;7.50;99.90;;;;;;5045516;28;20626;-75
2024/02/07 06:18:41;;;;;;;3.33;2.60;;;7.40;99.90;;;;;;5044227;28;21302;-75
2024/02/07 06:21:08;;;;;;;4.23;2.03;;;7.40;99.90;;;;;;5042353;28;20644;-75
2024/02/07 06:23:35;;;;;;;4.47;2.50;;;7.40;99.90;;;;;;5042193;28;20622;-73
2024/02/07 06:26:04;;;;;;;2.73;2.33;;;7.50;99.90;;;;;;5046424;28;20627;-73
2024/02/07 06:28:30;;;;;;;6.80;2.87;;;7.50;99.90;;;;;;5045047;28;20626;-73
2024/02/07 06:30:57;;;;;;;4.30;3.00;;;7.50;99.90;;;;;;5042121;28;20629;-74
2024/02/07 06:33:24;;;;;;;4.73;2.57;;;7.50;99.90;;;;;;5048889;28;20988;-75
2024/02/07 06:35:50;;;;;;;4.80;3.47;;;7.50;99.90;;;;;;5045237;28;20981;-73
2024/02/07 06:38:17;;;;;;;3.50;2.83;;;7.60;99.90;;;;;;5048511;28;21326;-73
2024/02/07 06:40:44;;;;;;;5.47;3.10;;;7.60;99.90;;;;;;5047704;28;21191;-75
2024/02/07 06:43:13;;;;;;;3.72;3.42;;;7.60;99.90;;;;;;5047436;28;20623;-75
2024/02/07 06:45:40;;;;;;;4.40;3.10;;;7.70;99.90;;;;;;5046652;28;20299;-76
2024/02/07 06:48:07;;;;;;;3.17;2.77;;;7.70;99.90;;;;;;5038799;28;20627;-76
2024/02/07 06:50:34;;;;;;;5.20;2.93;;;7.70;99.90;;;;;;5044183;28;20630;-75
2024/02/07 06:53:00;;;;;;;4.25;3.25;;;7.60;99.90;;;;;;5044404;28;20634;-75
2024/02/07 06:55:27;;;;;;;5.30;3.20;;;7.80;99.90;;;;;;5045195;28;20583;-77
2024/02/07 06:57:54;;;;;;;4.50;3.33;;;7.70;99.90;;;;;;5049358;28;20242;-76
2024/02/07 07:00:23;;;;;;;3.60;2.80;;;7.60;99.90;;;;;;5042588;28;20658;-76
2024/02/07 07:02:49;;;;;;;3.60;2.60;;;7.70;99.90;;;;;;5045271;28;20631;-76
2024/02/07 07:05:16;;;;;;;3.72;2.72;;;7.80;99.90;;;;;;5045260;28;21000;-76
2024/02/07 07:07:43;;;;;;;8.23;3.07;;;7.70;99.90;;;;;;5050815;28;20332;-76
2024/02/07 07:10:10;;;;;;;8.87;2.90;;;7.70;99.90;;;;;;5050582;28;20618;-76
2024/02/07 07:12:37;;;;;;;2.80;2.50;;;7.70;99.90;;;;;;5049944;28;20629;-75
2024/02/07 07:15:05;;;;;;;3.20;2.90;;;7.70;99.90;;;;;;5050430;28;20676;-76
2024/02/07 07:17:33;;;;;;;3.53;2.90;;;7.80;99.90;;;;;;5050569;28;20980;-76
2024/02/07 07:20:00;;;;;;;3.77;2.83;;;7.70;99.90;;;;;;5050178;28;20637;-76
2024/02/07 07:22:27;;;;;;;3.77;3.17;;;7.80;99.90;;;;;;5046817;28;20622;-76
2024/02/07 07:24:54;;;;;;;5.87;3.10;;;7.80;99.90;;;;;;5050014;28;20634;-76
2024/02/07 07:27:21;;;;;;;3.90;2.93;;;7.80;99.90;;;;;;5044798;28;20644;-77
2024/02/07 07:29:47;;;;;;;6.37;3.10;;;7.80;99.90;;;;;;5039913;28;20618;-76
2024/02/07 07:32:14;;;;;;;3.80;2.93;;;7.90;99.90;;;;;;5047779;28;21134;-76
2024/02/07 07:34:43;;;;;;;3.97;2.50;;;7.80;99.90;;;;;;5049678;28;20677;-76
2024/02/07 07:37:09;;;;;;;4.63;3.37;;;7.80;99.90;;;;;;5048516;28;20640;-76
2024/02/07 07:39:36;;;;;;;3.93;2.57;;;7.80;99.90;;;;;;5048843;28;20681;-74
2024/02/07 07:42:03;;;;;;;2.80;2.47;;;7.80;99.80;;;;;;5048932;28;20638;-74
2024/02/07 07:44:30;;;;;;;4.67;2.90;;;8.00;99.80;;;;;;5049268;28;20662;-74
2024/02/07 07:46:57;;;;;;;3.93;2.87;;;7.90;99.80;;;;;;5049727;28;20633;-74
2024/02/07 07:49:24;;;;;;;6.50;3.90;;;8.00;99.50;;;;;;5044833;28;20632;-74
2024/02/07 07:51:52;;;;;;;7.83;3.07;;;8.10;99.70;;;;;;5050285;28;20986;-74
2024/02/07 07:54:19;;;;;;;3.70;2.87;;;8.10;99.60;;;;;;5048848;28;20697;-74
2024/02/07 07:56:45;;;;;;;4.13;3.10;;;8.20;99.70;;;;;;5049414;28;20629;-74
2024/02/07 07:59:13;;;;;;;5.13;3.03;;;8.10;99.60;;;;;;5049647;28;20676;-74
2024/02/07 08:01:40;;;;;;;4.10;3.20;;;8.20;99.50;;;;;;5050101;28;20622;-74
2024/02/07 08:04:06;;;;;;;3.47;3.17;;;8.10;99.50;;;;;;5049236;28;20634;-74
2024/02/07 08:06:33;;;;;;;3.87;3.33;;;8.10;99.40;;;;;;5048773;28;20722;-74
2024/02/07 08:09:02;;;;;;;9.23;3.70;;;8.10;99.40;;;;;;5049351;28;20626;-74
2024/02/07 08:11:28;;;;;;;3.63;2.90;;;8.20;99.50;;;;;;5048934;28;20692;-74
2024/02/07 08:13:55;;;;;;;3.60;3.30;;;8.20;99.30;;;;;;5049269;28;20623;-74
2024/02/07 08:16:22;;;;;;;6.80;3.00;;;8.30;99.30;;;;;;5043351;28;20626;-74
2024/02/07 08:18:50;;;;;;;3.20;2.77;;;8.30;99.30;;;;;;5043625;28;20670;-74
2024/02/07 08:21:16;;;;;;;9.13;3.47;;;8.40;99.10;;;;;;5040621;28;20637;-74
2024/02/07 08:23:43;;;;;;;4.03;2.67;;;8.40;99.00;;;;;;5042641;28;20617;-74
2024/02/07 08:26:11;;;;;;;3.50;3.20;;;8.40;99.20;;;;;;5048022;28;20642;-74
2024/02/07 08:28:38;;;;;;;5.70;3.23;;;8.40;99.20;;;;;;5049064;28;20618;-74
2024/02/07 08:31:05;;;;;;;3.67;2.73;;;8.30;99.20;;;;;;5046434;28;20635;-74
2024/02/07 08:33:31;;;;;;;5.13;2.60;;;8.40;99.10;;;;;;5040187;28;20624;-74
2024/02/07 08:35:58;;;;;;;4.13;2.80;;;8.50;99.00;;;;;;5047495;28;20637;-74
2024/02/07 08:38:25;;;;;;;4.30;3.00;;;8.50;99.30;;;;;;5040881;28;21249;-74
2024/02/07 08:40:54;;;;;;;5.70;3.17;;;8.40;99.20;;;;;;5044285;28;21214;-72
2024/02/07 08:43:22;;;;;;;3.97;2.93;;;8.50;99.30;;;;;;5046637;28;21090;-72
2024/02/07 08:45:49;;;;;;;3.83;2.70;;;8.50;99.40;;;;;;5047403;28;20627;-71
2024/02/07 08:48:16;;;;;;;3.27;2.90;;;8.50;99.30;;;;;;5046730;28;20619;-72
2024/02/07 08:50:43;;;;;;;4.97;2.93;;;8.60;99.20;;;;;;5047042;28;20633;-72
2024/02/07 08:53:11;;;;;;;2.93;2.67;;;8.60;99.20;;;;;;5046610;28;20702;-71
2024/02/07 08:55:37;;;;;;;5.70;3.40;;;8.70;99.10;;;;;;5044899;28;20637;-70
2024/02/07 08:58:05;;;;;;;3.70;2.43;;;8.70;99.10;;;;;;5045489;28;20617;-70
2024/02/07 09:00:33;;;;;;;5.43;3.63;;;8.70;99.20;;;;;;5046150;28;20634;-70
2024/02/07 09:03:00;;;;;;;5.40;3.07;;;8.70;99.20;;;;;;5045585;28;20643;-72
2024/02/07 09:05:27;;;;;;;5.30;3.10;;;8.70;99.20;;;;;;5046714;28;21197;-71
2024/02/07 09:07:54;;;;;;;3.23;2.83;;;8.70;99.20;;;;;;5046794;28;20645;-71
2024/02/07 09:10:23;;;;;;;3.70;2.90;;;8.70;99.40;;;;;;5042859;28;20722;-71
2024/02/07 09:12:49;;;;;;;3.27;2.97;;;8.60;99.50;;;;;;5044540;28;20718;-72
2024/02/07 09:15:16;;;;;;;6.17;2.83;;;8.60;99.70;;;;;;5041688;28;20638;-71
2024/02/07 09:17:44;;;;;;;5.93;3.20;;;8.50;99.70;;;;;;5043938;28;20972;-72
2024/02/07 09:20:13;;;;;;;7.80;3.00;;;8.70;99.70;;;;;;5046293;28;20674;-72
2024/02/07 09:22:40;;;;;;;3.13;2.83;;;8.70;99.60;;;;;;5043114;28;20627;-72
2024/02/07 09:25:08;;;;;;;4.63;3.80;;;8.70;99.70;;;;;;5044308;28;20738;-74
2024/02/07 09:27:34;;;;;;;6.30;3.30;;;8.80;99.70;;;;;;5042944;28;21242;-74
2024/02/07 09:30:01;;;;;;;3.30;3.00;;;8.70;99.70;;;;;;5036446;28;20980;-75
2024/02/07 09:32:28;;;;;;;8.00;3.90;;;8.70;99.70;;;;;;5045707;28;20669;-75
2024/02/07 09:34:56;;;;;;;3.47;3.17;;;8.80;99.90;;;;;;5045294;28;20645;-75
2024/02/07 09:37:23;;;;;;;6.83;2.90;;;8.80;99.80;;;;;;5044153;28;20633;-72
2024/02/07 09:39:50;;;;;;;6.60;3.50;;;8.80;99.80;;;;;;5043921;28;20671;-72
2024/02/07 09:42:19;;;;;;;3.70;3.30;;;8.90;99.80;;;;;;5045215;28;20627;-71
2024/02/07 09:44:52;;;;;;;6.83;3.53;;;9.00;99.60;;;;;;5043279;28;21105;-71
2024/02/07 09:47:20;;;;;;;5.37;2.83;;;9.00;99.50;;;;;;5046956;28;21184;-74
2024/02/07 09:49:48;;;;;;;3.43;3.00;;;9.00;99.60;;;;;;5050185;28;20630;-71
2024/02/07 09:52:18;;;;;;;5.47;3.10;;;9.00;99.50;;;;;;5044611;28;20639;-71
2024/02/07 09:54:47;;;;;;;3.07;2.63;;;8.90;99.30;;;;;;5044437;28;20625;-74
2024/02/07 09:57:14;;;;;;;4.40;3.40;;;8.90;99.50;;;;;;5033799;28;20638;-75
2024/02/07 09:59:42;;;;;;;5.53;3.60;;;8.90;99.50;;;;;;5040406;28;20689;-74
2024/02/07 10:02:15;;;;;;;3.30;2.80;;;8.90;99.50;;;;;;5051367;28;20653;-75
2024/02/07 10:04:49;;;;;;;5.67;2.87;;;9.10;99.50;;;;;;5051103;28;20717;-75
2024/02/07 10:07:19;;;;;;;7.97;3.23;;;9.10;99.30;;;;;;5044178;28;20635;-75
2024/02/07 10:09:49;;;;;;;4.53;3.50;;;9.20;98.90;;;;;;5047854;28;21003;-75
2024/02/07 10:12:17;;;;;;;3.57;2.70;;;9.30;99.10;;;;;;5037814;28;20638;-75
2024/02/07 10:14:45;;;;;;;5.07;3.03;;;9.20;99.10;;;;;;5051053;28;21179;-75
2024/02/07 10:17:12;;;;;;;3.37;2.67;;;9.30;99.00;;;;;;5044760;28;20726;-75
2024/02/07 10:19:40;;;;;;;4.60;2.23;;;9.30;98.90;;;;;;5051319;28;20664;-75
2024/02/07 10:22:20;;;;;;;3.00;2.70;;;9.30;98.90;;;;;;5049301;28;20645;-75
2024/02/07 10:24:47;;;;;;;5.43;2.37;;;9.30;98.80;;;;;;5042204;28;20705;-75
2024/02/07 10:27:18;;;;;;;3.90;2.60;;;9.40;98.90;;;;;;5050789;28;20643;-75
2024/02/07 10:29:45;;;;;;;2.50;2.20;;;9.50;98.70;;;;;;5050165;28;20660;-75
2024/02/07 10:32:17;;;;;;;3.30;2.70;;;9.50;98.70;;;;;;5045042;28;20624;-75
2024/02/07 10:34:51;;;;;;;3.93;2.10;;;9.50;98.70;;;;;;5047973;28;20634;-75
2024/02/07 10:37:19;;;;;;;3.10;2.00;;;9.50;98.60;;;;;;5047385;28;20629;-75
2024/02/07 10:39:46;;;;;;;3.73;2.27;;;9.50;98.70;;;;;;5045660;28;21246;-75
2024/02/07 10:42:14;;;;;;;5.30;2.37;;;9.50;98.50;;;;;;5045670;28;20632;-75
2024/02/07 10:44:41;;;;;;;2.70;2.30;;;9.50;98.80;;;;;;5048215;28;20627;-75
2024/02/07 10:47:09;;;;;;;5.40;2.50;;;9.60;98.50;;;;;;5048933;28;20644;-75
2024/02/07 10:49:38;;;;;;;4.13;2.17;;;9.40;98.40;;;;;;5050629;28;20623;-75
2024/02/07 10:52:11;;;;;;;3.60;2.40;;;9.50;99.90;;;;;;5043720;28;20634;-75
2024/02/07 10:54:39;;;;;;;2.17;1.93;;;9.70;98.60;;;;;;5039270;28;20632;-75
2024/02/07 10:57:07;;;;;;;2.83;2.63;;;9.60;98.60;;;;;;5040785;28;20627;-75
2024/02/07 10:59:39;;;;;;;8.83;2.50;;;;;;;;;;5050079;28;20670;-75
2024/02/07 11:02:14;;;;;;;6.33;2.23;;;9.80;99.90;;;;;;5041424;28;20986;-75
2024/02/07 11:04:42;;;;;;;6.03;2.40;;;9.50;99.90;;;;;;5047420;28;21034;-75
2024/02/07 11:07:13;;;;;;;2.30;2.10;;;9.60;99.90;;;;;;5050421;28;21254;-75
2024/02/07 11:09:45;;;;;;;2.80;2.10;;;9.60;98.60;;;;;;5050141;28;20623;-74
2024/02/07 11:12:13;;;;;;;5.00;2.30;;;9.60;99.90;;;;;;5040984;28;20639;-73
2024/02/07 11:14:43;;;;;;;3.20;2.00;;;9.70;98.60;;;;;;5048383;28;20630;-74
2024/02/07 11:17:10;;;;;;;3.00;2.20;;;;;;;;;;5047910;28;20716;-74
2024/02/07 11:19:37;;;;;;;2.70;2.10;;;9.70;98.70;;;;;;5050947;28;20668;-75
2024/02/07 11:22:07;;;;;;;2.80;2.10;;;9.20;99.60;;;;;;5042739;28;20623;-75
2024/02/07 11:24:35;;;;;;;3.00;2.70;;;9.50;99.90;;;;;;5049454;28;20727;-75
2024/02/07 11:27:03;;;;;;;5.00;3.47;;;;;;;;;;5049491;28;20643;-75
2024/02/07 11:29:32;;;;;;;4.03;2.97;;;9.70;98.60;;;;;;5050169;28;20637;-75
2024/02/07 11:31:59;;;;;;;5.23;2.60;;;;;;;;;;5049678;28;20976;-75
2024/02/07 11:34:27;;;;;;;2.00;1.80;;;9.80;99.90;;;;;;5041677;28;21041;-74
2024/02/07 11:36:55;;;;;;;4.20;2.13;;;;;;;;;;5049896;28;20638;-74
2024/02/07 11:39:22;;;;;;;3.43;2.97;;;9.60;98.40;;;;;;5048940;28;20670;-75
2024/02/07 11:41:49;;;;;;;2.80;2.03;;;9.70;99.90;;;;;;5050240;28;20625;-75
2024/02/07 11:44:17;;;;;;;5.10;3.10;;;9.70;98.80;;;;;;5049298;28;20634;-75
2024/02/07 11:46:50;;;;;;;1.53;1.43;;;9.60;99.90;;;;;;5045322;28;20965;-74
2024/02/07 11:49:18;;;;;;;2.07;1.77;;;9.80;98.70;;;;;;5050075;28;20652;-75
2024/02/07 11:51:46;;;;;;;2.57;1.70;;;;;;;;;;5049058;28;21111;-75
2024/02/07 11:54:20;;;;;;;2.50;2.00;;;9.90;98.50;;;;;;5045552;28;20639;-76
2024/02/07 11:56:55;;;;;;;1.93;1.73;;;;;;;;;;5047619;28;21175;-82
2024/02/07 11:59:24;;;;;;;3.47;2.03;;;9.90;99.30;;;;;;5045267;28;20671;-77
2024/02/07 12:01:51;;;;;;;1.70;1.60;;;;;;;;;;5043937;28;20634;-79
2024/02/07 12:04:19;;;;;;;2.13;1.93;;;;;;;;;;5043035;28;20640;-82
2024/02/07 12:06:47;;;;;;;1.40;1.30;;;10.10;99.90;;;;;;5043475;28;20650;-75
2024/02/07 12:09:14;;;;;;;2.77;1.90;;;;;;;;;;5048889;28;21016;-77
2024/02/07 12:11:41;;;;;;;2.30;1.13;;;10.10;97.70;;;;;;5041446;28;20623;-77
2024/02/07 12:14:08;;;;;;;2.90;1.90;;;;;;;;;;5043100;28;20743;-77
2024/02/07 12:16:37;;;;;;;1.53;1.23;;;10.20;97.90;;;;;;5044927;28;20619;-76
2024/02/07 12:19:04;;;;;;;3.50;1.50;;;;;;;;;;5048962;28;20628;-76
2024/02/07 12:21:35;;;;;;;2.10;1.37;;;10.40;98.60;;;;;;5045406;28;20673;-76
2024/02/07 12:24:03;;;;;;;2.30;1.73;;;;;;;;;;5031645;28;21231;-76
2024/02/07 12:26:30;;;;;;;5.00;1.83;;;;;;;;;;5045394;28;20641;-76
2024/02/07 12:28:58;;;;;;;1.80;1.20;;;;;;;;;;5044664;28;20628;-76
2024/02/07 12:31:25;;;;;;;2.20;1.17;;;;;;;;;;5043918;28;21473;-76
2024/02/07 12:33:54;;;;;;;1.17;1.07;;;10.40;98.80;;;;;;5039173;28;20650;-76
2024/02/07 12:36:21;;;;;;;2.43;1.30;;;;;;;;;;5046877;28;20634;-76
2024/02/07 12:38:48;;;;;;;1.50;1.40;;;;;;;;;;5048924;28;20737;-76
2024/02/07 12:41:16;;;;;;;1.77;1.17;;;10.50;98.40;;;;;;5048303;28;20681;-76
2024/02/07 12:43:44;;;;;;;1.20;1.10;;;10.50;98.30;;;;;;5043554;28;20712;-76
2024/02/07 12:46:11;;;;;;;2.00;1.40;;;;;;;;;;5042216;28;21069;-76
2024/02/07 12:48:38;;;;;;;1.60;1.50;;;;;;;;;;5046893;28;20985;-75
2024/02/07 12:51:08;;;;;;;3.37;1.33;;;10.20;99.90;;;;;;5048911;28;20630;-76
2024/02/07 12:53:35;;;;;;;2.00;1.70;;;;;;;;;;5042227;28;20622;-75
2024/02/07 12:56:02;;;;;;;1.67;1.47;;;;;;;;;;5042670;28;20732;-76
2024/02/07 12:58:29;;;;;;;2.73;1.60;;;;;;;;;;5042902;28;21005;-75
2024/02/07 13:01:02;;;;;;;1.10;0.97;;;10.20;96.80;;;;;;5045118;28;21305;-75
2024/02/07 13:03:29;;;;;;;7.03;1.97;;;10.20;96.60;;;;;;5043327;28;20641;-74
2024/02/07 13:05:56;;;;;;;1.87;1.47;;;10.10;96.80;;;;;;5044841;28;20628;-75
2024/02/07 13:08:24;;;;;;;2.03;1.60;;;10.20;97.00;;;;;;5046971;28;20643;-75
2024/02/07 13:10:51;;;;;;;1.57;1.47;;;;;;;;;;5039403;28;20632;-75
2024/02/07 13:13:18;;;;;;;1.60;1.50;;;;;;;;;;5037514;28;20648;-76
2024/02/07 13:15:45;;;;;;;1.43;1.23;;;;;;;;;;5044202;28;20690;-76
2024/02/07 13:18:12;;;;;;;3.30;1.63;;;;;;;;;;5046849;28;20659;-77
2024/02/07 13:20:39;;;;;;;1.63;1.23;;;;;;;;;;5044688;28;20672;-76
2024/02/07 13:23:06;;;;;;;2.50;1.50;;;10.20;99.90;;;;;;5044305;28;20638;-75
2024/02/07 13:25:35;;;;;;;2.47;2.00;;;;;;;;;;5037830;28;20711;-78
2024/02/07 13:28:02;;;;;;;1.83;1.70;;;;;;;;;;5040390;28;21440;-76
2024/02/07 13:30:29;;;;;;;1.67;1.57;;;;;;;;;;5040217;28;20733;-76
2024/02/07 13:32:56;;;;;;;1.57;1.47;;;;;;;;;;5039175;28;20627;-76
2024/02/07 13:35:23;;;;;;;1.50;1.40;;;;;;;;;;5046731;28;22314;-76
2024/02/07 13:37:52;;;;;;;5.10;1.60;;;;;;;;;;5035646;28;21362;-76
2024/02/07 13:40:19;;;;;;;2.33;1.77;;;;;;;;;;5040197;28;20662;-76
2024/02/07 13:42:48;;;;;;;2.27;1.30;;;10.30;99.20;;;;;;5043037;28;20625;-76
2024/02/07 13:45:15;;;;;;;1.30;1.20;;;;;;;;;;5039382;28;20972;-77
2024/02/07 13:47:42;;;;;;;6.50;1.50;;;;;;;;;;5043086;28;20733;-75
2024/02/07 13:50:10;;;;;;;1.80;1.30;;;10.30;99.20;;;;;;5040586;28;20625;-76
2024/02/07 13:52:37;;;;;;;1.53;1.40;;;;;;;;;;5042267;28;20635;-75
2024/02/07 13:55:04;;;;;;;2.40;1.60;;;10.30;98.20;;;;;;5036351;28;20629;-76
2024/02/07 13:57:31;;;;;;;1.43;1.10;;;;;;;;;;5041937;28;20630;-76
2024/02/07 13:59:59;;;;;;;1.90;1.10;;;10.10;97.20;;;;;;5040252;28;20665;-76
2024/02/07 14:02:26;;;;;;;1.40;1.30;;;;;;;;;;5039781;28;20621;-76
2024/02/07 14:04:53;;;;;;;1.50;1.37;;;;;;;;;;5045479;28;20628;-76
2024/02/07 14:07:21;;;;;;;1.40;1.27;;;;;;;;;;5044998;28;20977;-76
2024/02/07 14:09:48;;;;;;;1.93;1.30;;;;;;;;;;5046821;28;20642;-76
2024/02/07 14:12:15;;;;;;;1.70;1.60;;;;;;;;;;5044005;28;20732;-76
2024/02/07 14:14:42;;;;;;;1.20;1.10;;;;;;;;;;5042426;28;20638;-76
2024/02/07 14:17:10;;;;;;;1.30;1.20;;;10.00;97.60;;;;;;5047395;28;21049;-76
2024/02/07 14:19:37;;;;;;;1.90;1.37;;;;;;;;;;5040606;28;20641;-76